createdAt,value
2022-09-06T00:01:43.033Z,1.42
2022-09-06T00:04:15.407Z,1.30
2022-09-06T00:06:45.658Z,1.00
2022-09-06T00:09:15.524Z,1.67
2022-09-06T00:11:46.793Z,1.33
2022-09-06T00:14:16.678Z,1.25
2022-09-06T00:16:47.171Z,1.10
2022-09-06T00:19:17.070Z,1.58
2022-09-06T00:21:46.971Z,1.40
2022-09-06T00:24:16.671Z,1.20
2022-09-06T00:26:48.082Z,1.48
2022-09-06T00:29:17.951Z,1.67
2022-09-06T00:31:47.832Z,1.52
2022-09-06T00:34:17.615Z,1.42
2022-09-06T00:36:47.362Z,1.45
2022-09-06T00:39:17.110Z,1.38
2022-09-06T00:41:48.578Z,1.83
2022-09-06T00:44:18.349Z,1.38
2022-09-06T00:46:50.371Z,1.20
2022-09-06T00:52:20.968Z,1.25
2022-09-06T00:54:53.160Z,1.25
2022-09-06T00:57:27.434Z,1.58
2022-09-06T00:59:58.873Z,1.50
2022-09-06T01:02:29.042Z,1.08
2022-09-06T01:04:59.574Z,1.30
2022-09-06T01:07:47.456Z,1.63
2022-09-06T01:10:48.545Z,1.40
2022-09-06T01:13:42.481Z,1.35
2022-09-06T01:16:21.876Z,1.42
2022-09-06T01:19:20.590Z,1.30
2022-09-06T01:21:57.522Z,1.13
2022-09-06T01:25:05.631Z,1.75
2022-09-06T01:28:24.764Z,1.45
2022-09-06T01:31:07.035Z,1.40
2022-09-06T01:33:48.154Z,1.40
2022-09-06T01:36:23.838Z,2.00
2022-09-06T01:38:53.814Z,1.50
2022-09-06T01:41:23.792Z,1.27
2022-09-06T01:43:57.722Z,1.50
2022-09-06T01:46:39.736Z,0.90
2022-09-06T01:49:26.236Z,1.40
2022-09-06T01:52:10.891Z,1.20
2022-09-06T01:55:01.649Z,1.27
2022-09-06T01:57:51.993Z,1.33
2022-09-06T02:00:24.761Z,1.25
2022-09-06T02:03:07.907Z,1.05
2022-09-06T02:05:43.594Z,1.13
2022-09-06T02:08:18.753Z,1.05
2022-09-06T02:10:55.230Z,1.02
2022-09-06T02:13:29.516Z,1.10
2022-09-06T02:16:05.484Z,1.27
2022-09-06T02:18:42.216Z,1.35
2022-09-06T02:21:16.452Z,1.30
2022-09-06T02:23:47.634Z,1.08
2022-09-06T02:26:23.553Z,1.00
2022-09-06T02:28:53.483Z,1.00
2022-09-06T02:31:31.234Z,1.08
2022-09-06T02:34:02.201Z,1.13
2022-09-06T02:36:33.685Z,1.40
2022-09-06T02:39:04.861Z,0.90
2022-09-06T02:41:36.296Z,1.02
2022-09-06T02:44:06.509Z,1.02
2022-09-06T02:46:37.976Z,1.25
2022-09-06T02:49:07.999Z,0.90
2022-09-06T02:51:40.439Z,1.10
2022-09-06T02:54:10.494Z,1.35
2022-09-06T02:56:40.314Z,0.90
2022-09-06T02:59:10.102Z,0.80
2022-09-06T03:01:41.508Z,1.30
2022-09-06T03:04:11.588Z,1.00
2022-09-06T03:06:41.405Z,1.50
2022-09-06T03:09:12.071Z,1.05
2022-09-06T03:11:41.932Z,1.17
2022-09-06T03:14:11.751Z,1.20
2022-09-06T03:16:43.162Z,0.70
2022-09-06T03:19:12.994Z,1.30
2022-09-06T03:21:42.852Z,1.10
2022-09-06T03:24:12.647Z,1.98
2022-09-06T03:26:42.571Z,0.93
2022-09-06T03:29:12.399Z,1.08
2022-09-06T03:31:43.922Z,1.20
2022-09-06T03:34:13.774Z,0.75
2022-09-06T03:36:43.551Z,0.95
2022-09-06T03:39:13.522Z,1.20
2022-09-06T03:41:43.336Z,1.00
2022-09-06T03:44:13.197Z,0.88
2022-09-06T03:46:44.710Z,1.10
2022-09-06T03:49:14.635Z,0.88
2022-09-06T03:53:17.572Z,1.08
2022-09-06T03:55:48.655Z,1.20
2022-09-06T03:58:21.181Z,1.00
2022-09-06T04:00:51.832Z,1.10
2022-09-06T04:03:22.503Z,1.30
2022-09-06T04:05:52.275Z,1.17
2022-09-06T04:08:23.587Z,1.08
2022-09-06T04:10:54.672Z,1.20
2022-09-06T04:13:25.371Z,0.93
2022-09-06T04:15:55.489Z,1.05
2022-09-06T04:18:25.861Z,0.98
2022-09-06T04:20:57.758Z,1.10
2022-09-06T04:23:31.230Z,1.10
2022-09-06T04:26:02.665Z,1.50
2022-09-06T04:28:32.744Z,1.60
2022-09-06T04:31:05.322Z,1.60
2022-09-06T04:36:09.837Z,1.05
2022-09-06T04:38:43.674Z,1.42
2022-09-06T04:41:14.974Z,1.25
2022-09-06T04:43:45.511Z,1.38
2022-09-06T04:46:22.588Z,1.58
2022-09-06T04:48:52.793Z,1.60
2022-09-06T04:51:23.414Z,1.55
2022-09-06T04:53:55.143Z,1.70
2022-09-06T04:56:27.834Z,1.23
2022-09-06T05:01:27.968Z,1.75
2022-09-06T05:03:58.028Z,1.92
2022-09-06T05:06:28.095Z,1.88
2022-09-06T05:08:59.531Z,1.73
2022-09-06T05:11:29.523Z,1.58
2022-09-06T05:13:59.431Z,1.50
2022-09-06T05:16:29.571Z,1.85
2022-09-06T05:18:59.790Z,2.10
2022-09-06T05:21:32.015Z,1.95
2022-09-06T05:24:03.473Z,1.80
2022-09-06T05:26:33.510Z,2.00
2022-09-06T05:29:03.311Z,2.10
2022-09-06T05:31:35.419Z,2.33
2022-09-06T05:34:05.421Z,2.00
2022-09-06T05:36:35.851Z,2.30
2022-09-06T05:39:07.190Z,2.00
2022-09-06T05:41:37.073Z,2.08
2022-09-06T05:44:07.035Z,1.83
2022-09-06T05:46:36.911Z,1.40
2022-09-06T05:49:08.394Z,1.50
2022-09-06T05:51:38.150Z,2.10
2022-09-06T05:54:09.819Z,2.22
2022-09-06T05:56:39.862Z,2.23
2022-09-06T05:59:09.751Z,2.60
2022-09-06T06:01:40.767Z,4.00
2022-09-06T06:04:10.650Z,3.10
2022-09-06T06:06:40.353Z,2.95
2022-09-06T06:09:11.654Z,2.45
2022-09-06T06:11:41.596Z,1.55
2022-09-06T06:14:12.136Z,1.70
2022-09-06T06:16:42.120Z,1.75
2022-09-06T06:19:12.053Z,1.60
2022-09-06T06:21:41.854Z,1.30
2022-09-06T06:24:13.493Z,1.60
2022-09-06T06:26:43.229Z,1.27
2022-09-06T06:29:13.082Z,1.17
2022-09-06T06:31:43.422Z,1.17
2022-09-06T06:34:13.411Z,1.52
2022-09-06T06:36:44.772Z,0.90
2022-09-06T06:39:16.231Z,1.48
2022-09-06T06:41:46.162Z,1.10
2022-09-06T06:44:16.038Z,1.30
2022-09-06T06:46:45.796Z,1.20
2022-09-06T06:49:15.642Z,1.30
2022-09-06T06:53:16.913Z,1.10
2022-09-06T06:55:50.111Z,0.93
2022-09-06T06:58:21.104Z,1.00
2022-09-06T07:00:51.052Z,1.08
2022-09-06T07:03:21.106Z,0.93
2022-09-06T07:08:42.974Z,2.80
2022-09-06T07:11:14.995Z,0.88
2022-09-06T07:13:45.264Z,0.93
2022-09-06T07:16:19.876Z,0.82
2022-09-06T07:18:52.909Z,1.10
2022-09-06T07:21:42.544Z,0.95
2022-09-06T07:24:14.956Z,1.23
2022-09-06T07:29:35.370Z,1.40
2022-09-06T07:32:12.762Z,1.52
2022-09-06T07:34:42.743Z,2.08
2022-09-06T07:37:12.495Z,2.40
2022-09-06T07:39:44.030Z,2.35
2022-09-06T07:42:13.912Z,2.50
2022-09-06T07:44:43.752Z,2.20
2022-09-06T07:53:15.602Z,2.65
2022-09-06T07:55:47.870Z,4.10
2022-09-06T07:58:17.635Z,2.50
2022-09-06T08:00:48.949Z,2.40
2022-09-06T08:03:19.053Z,1.60
2022-09-06T08:11:30.973Z,2.30
2022-09-06T08:14:02.793Z,1.80
2022-09-06T08:16:34.653Z,1.90
2022-09-06T08:19:08.664Z,1.98
2022-09-06T08:21:38.437Z,2.38
2022-09-06T08:24:11.579Z,1.90
2022-09-06T08:26:43.445Z,2.10
2022-09-06T08:29:14.553Z,2.40
2022-09-06T08:31:46.201Z,3.17
2022-09-06T08:34:16.754Z,1.90
2022-09-06T08:36:46.989Z,2.28
2022-09-06T08:39:17.156Z,2.90
2022-09-06T08:41:57.429Z,2.65
2022-09-06T08:47:24.497Z,2.75
2022-09-06T08:49:58.557Z,3.60
2022-09-06T08:53:13.581Z,3.22
2022-09-06T08:55:48.384Z,2.83
2022-09-06T08:58:49.594Z,3.15
2022-09-06T09:01:25.592Z,2.60
2022-09-06T09:03:58.810Z,2.78
2022-09-06T09:06:30.970Z,3.15
2022-09-06T09:11:36.534Z,3.58
2022-09-06T09:14:16.983Z,3.70
2022-09-06T09:16:47.114Z,3.15
2022-09-06T09:19:17.071Z,2.75
2022-09-06T09:21:47.134Z,2.60
2022-09-06T09:24:18.097Z,3.30
2022-09-06T09:26:55.453Z,3.20
2022-09-06T09:29:30.241Z,4.63
2022-09-06T09:32:01.986Z,4.03
2022-09-06T09:34:35.137Z,4.47
2022-09-06T09:40:18.250Z,4.80
2022-09-06T09:42:48.096Z,4.28
2022-09-06T09:45:31.730Z,4.47
2022-09-06T09:48:27.524Z,4.15
2022-09-06T09:53:19.278Z,4.10
2022-09-06T09:55:50.054Z,3.97
2022-09-06T09:58:33.472Z,3.00
2022-09-06T10:01:20.294Z,3.33
2022-09-06T10:09:39.182Z,4.40
2022-09-06T10:12:09.816Z,4.07
2022-09-06T10:14:45.142Z,4.18
2022-09-06T10:17:25.834Z,4.30
2022-09-06T10:19:56.277Z,3.80
2022-09-06T10:22:33.507Z,3.97
2022-09-06T10:25:47.664Z,3.90
2022-09-06T10:28:32.913Z,3.58
2022-09-06T10:31:30.936Z,3.40
2022-09-06T10:34:40.082Z,5.13
2022-09-06T10:37:43.638Z,3.95
2022-09-06T10:40:25.490Z,4.53
2022-09-06T10:42:59.500Z,4.72
2022-09-06T10:45:47.699Z,4.25
2022-09-06T10:48:25.876Z,4.28
2022-09-06T10:51:00.735Z,5.53
2022-09-06T10:53:43.977Z,4.60
2022-09-06T10:56:22.793Z,4.28
2022-09-06T11:02:06.691Z,4.45
2022-09-06T11:07:32.394Z,4.40
2022-09-06T11:10:08.249Z,4.45
2022-09-06T11:12:46.976Z,4.10
2022-09-06T11:15:18.401Z,3.90
2022-09-06T11:17:54.852Z,4.60
2022-09-06T11:20:32.276Z,4.68
2022-09-06T11:23:46.370Z,4.75
2022-09-06T11:26:35.921Z,5.22
2022-09-06T11:29:11.213Z,5.45
2022-09-06T11:34:56.817Z,5.28
2022-09-06T11:37:31.066Z,5.63
2022-09-06T11:40:31.850Z,5.88
2022-09-06T11:43:20.613Z,8.48
2022-09-06T11:45:55.118Z,4.97
2022-09-06T11:49:03.457Z,5.53
2022-09-06T11:51:40.617Z,4.68
2022-09-06T11:54:33.275Z,5.28
2022-09-06T11:57:13.735Z,4.90
2022-09-06T12:00:00.771Z,4.38
2022-09-06T12:02:45.283Z,4.38
2022-09-06T12:05:22.917Z,4.53
2022-09-06T12:08:32.318Z,3.78
2022-09-06T12:11:07.727Z,3.45
2022-09-06T12:13:53.389Z,4.22
2022-09-06T12:16:24.207Z,3.97
2022-09-06T12:19:02.094Z,3.85
2022-09-06T12:21:52.510Z,6.15
2022-09-06T12:25:00.097Z,7.18
2022-09-06T12:27:33.451Z,3.33
2022-09-06T12:30:07.314Z,2.85
2022-09-06T12:32:42.090Z,2.90
2022-09-06T12:38:16.163Z,3.67
2022-09-06T12:40:51.993Z,3.72
2022-09-06T12:43:22.952Z,3.30
2022-09-06T12:45:55.114Z,4.40
2022-09-06T12:48:33.682Z,4.05
2022-09-06T12:53:27.022Z,3.38
2022-09-06T12:56:08.292Z,3.42
2022-09-06T12:58:39.170Z,3.25
2022-09-06T13:01:16.179Z,2.78
2022-09-06T13:03:54.429Z,3.00
2022-09-06T13:06:27.936Z,3.63
2022-09-06T13:09:01.569Z,3.42
2022-09-06T13:11:35.237Z,3.38
2022-09-06T13:14:14.472Z,3.40
2022-09-06T13:16:48.912Z,4.22
2022-09-06T13:19:31.176Z,3.70
2022-09-06T13:24:47.759Z,4.68
2022-09-06T13:27:28.518Z,5.07
2022-09-06T13:30:03.345Z,4.90
2022-09-06T13:32:33.454Z,4.28
2022-09-06T13:35:04.264Z,4.43
2022-09-06T13:37:36.635Z,4.55
2022-09-06T13:41:09.292Z,4.78
2022-09-06T13:43:34.174Z,4.85
2022-09-06T13:46:09.447Z,6.70
2022-09-06T13:48:40.518Z,8.82
2022-09-06T13:51:12.085Z,7.50
2022-09-06T13:53:41.977Z,15.30
2022-09-06T13:56:13.231Z,6.35
2022-09-06T13:58:42.994Z,6.20
2022-09-06T14:01:14.901Z,5.45
2022-09-06T14:03:45.269Z,6.32
2022-09-06T14:06:15.579Z,5.57
2022-09-06T14:11:37.451Z,6.20
2022-09-06T14:14:07.989Z,5.43
2022-09-06T14:16:38.455Z,5.95
2022-09-06T14:19:08.754Z,6.63
2022-09-06T14:21:38.931Z,5.78
2022-09-06T14:24:09.715Z,6.38
2022-09-06T14:26:41.252Z,6.70
2022-09-06T14:29:11.169Z,5.82
2022-09-06T14:31:40.959Z,6.45
2022-09-06T14:34:10.855Z,6.10
2022-09-06T14:36:41.137Z,5.50
2022-09-06T14:39:10.933Z,6.57
2022-09-06T14:41:42.329Z,5.75
2022-09-06T14:44:12.612Z,5.57
2022-09-06T14:46:42.568Z,5.80
2022-09-06T14:49:12.956Z,6.38
2022-09-06T14:51:43.800Z,5.05
2022-09-06T14:54:16.210Z,5.60
2022-09-06T14:56:47.792Z,5.20
2022-09-06T14:59:18.853Z,5.30
2022-09-06T15:01:48.859Z,5.57
2022-09-06T15:04:18.999Z,5.63
2022-09-06T15:06:49.129Z,6.78
2022-09-06T15:09:19.789Z,5.40
2022-09-06T15:11:52.720Z,5.18
2022-09-06T15:14:25.111Z,6.00
2022-09-06T15:16:58.474Z,5.90
2022-09-06T15:19:29.865Z,9.27
2022-09-06T15:22:00.742Z,9.93
2022-09-06T15:24:30.727Z,8.48
2022-09-06T15:27:03.134Z,9.45
2022-09-06T15:29:33.151Z,6.43
2022-09-06T15:32:03.258Z,5.65
2022-09-06T15:34:33.162Z,5.90
2022-09-06T15:37:03.377Z,6.60
2022-09-06T15:39:33.335Z,7.03
2022-09-06T15:42:04.992Z,6.25
2022-09-06T15:44:34.896Z,6.57
2022-09-06T15:47:06.251Z,5.68
2022-09-06T15:49:36.755Z,6.13
2022-09-06T15:53:16.497Z,6.63
2022-09-06T15:55:58.356Z,6.38
2022-09-06T15:58:29.475Z,6.63
2022-09-06T16:01:08.897Z,6.93
2022-09-06T16:03:41.153Z,8.60
2022-09-06T16:09:03.392Z,9.07
2022-09-06T16:11:37.066Z,8.50
2022-09-06T16:14:08.782Z,7.50
2022-09-06T16:16:40.796Z,7.63
2022-09-06T16:19:11.234Z,7.57
2022-09-06T16:21:44.540Z,7.50
2022-09-06T16:24:17.356Z,8.07
2022-09-06T16:26:48.557Z,8.35
2022-09-06T16:29:20.736Z,8.57
2022-09-06T16:31:50.976Z,9.35
2022-09-06T16:34:21.270Z,8.52
2022-09-06T16:36:51.314Z,8.88
2022-09-06T16:39:22.674Z,9.45
2022-09-06T16:41:53.311Z,9.23
2022-09-06T16:44:23.456Z,8.75
2022-09-06T16:46:54.092Z,9.13
2022-09-06T16:49:25.891Z,8.70
2022-09-06T16:51:55.893Z,9.65
2022-09-06T16:54:27.287Z,9.40
2022-09-06T16:56:57.337Z,9.10
2022-09-06T16:59:27.382Z,8.90
2022-09-06T17:01:57.433Z,8.75
2022-09-06T17:04:27.571Z,9.25
2022-09-06T17:06:57.461Z,9.02
2022-09-06T17:09:28.893Z,9.55
2022-09-06T17:11:58.891Z,8.87
2022-09-06T17:14:28.937Z,8.23
2022-09-06T17:17:05.466Z,8.32
2022-09-06T17:19:38.257Z,8.25
2022-09-06T17:22:10.478Z,7.78
2022-09-06T17:27:12.976Z,8.35
2022-09-06T17:29:42.934Z,8.25
2022-09-06T17:32:12.753Z,7.95
2022-09-06T17:34:43.934Z,8.40
2022-09-06T17:37:14.719Z,7.70
2022-09-06T17:39:46.290Z,7.63
2022-09-06T17:42:16.312Z,8.63
2022-09-06T17:44:46.328Z,7.22
2022-09-06T17:47:16.437Z,7.57
2022-09-06T17:49:47.586Z,7.00
2022-09-06T17:52:17.558Z,7.93
2022-09-06T17:54:49.173Z,7.70
2022-09-06T17:57:19.191Z,7.05
2022-09-06T17:59:49.147Z,7.40
2022-09-06T18:02:19.133Z,7.72
2022-09-06T18:04:49.226Z,8.23
2022-09-06T18:07:19.284Z,7.65
2022-09-06T18:09:50.974Z,8.00
2022-09-06T18:12:20.927Z,7.10
2022-09-06T18:14:51.132Z,7.78
2022-09-06T18:17:21.137Z,7.38
2022-09-06T18:19:51.051Z,7.35
2022-09-06T18:22:21.011Z,7.18
2022-09-06T18:24:57.544Z,7.15
2022-09-06T18:27:28.514Z,6.55
2022-09-06T18:29:58.417Z,6.00
2022-09-06T18:32:28.416Z,5.97
2022-09-06T18:34:58.760Z,5.40
2022-09-06T18:37:28.834Z,6.25
2022-09-06T18:40:00.408Z,5.93
2022-09-06T18:42:30.955Z,5.45
2022-09-06T18:45:01.003Z,3.03
2022-09-06T18:47:31.260Z,1.30
2022-09-06T18:53:18.947Z,1.52
2022-09-06T18:55:53.581Z,2.05
2022-09-06T18:58:23.855Z,2.00
2022-09-06T19:00:54.497Z,1.80
2022-09-06T19:03:24.827Z,1.60
2022-09-06T19:05:54.937Z,1.30
2022-09-06T19:08:26.626Z,1.23
2022-09-06T19:11:03.868Z,1.38
2022-09-06T19:13:35.169Z,0.90
2022-09-06T19:16:06.748Z,0.70
2022-09-06T19:18:38.012Z,0.60
2022-09-06T19:21:11.028Z,0.60
2022-09-06T19:23:47.275Z,0.50
2022-09-06T19:26:19.368Z,0.47
2022-09-06T19:28:52.272Z,0.40
2022-09-06T19:31:23.027Z,0.43
2022-09-06T19:33:54.902Z,0.57
2022-09-06T19:36:26.278Z,0.50
2022-09-06T19:39:05.026Z,0.43
2022-09-06T19:41:38.247Z,0.40
2022-09-06T19:44:10.037Z,0.40
2022-09-06T19:46:45.418Z,0.22
2022-09-06T19:49:16.981Z,0.40
2022-09-06T19:51:48.489Z,0.32
2022-09-06T19:54:20.656Z,0.43
2022-09-06T19:56:50.889Z,0.20
2022-09-06T19:59:20.914Z,0.30
2022-09-06T20:01:50.841Z,0.30
2022-09-06T20:04:21.313Z,0.22
2022-09-06T20:06:51.500Z,0.30
2022-09-06T20:09:23.054Z,0.20
2022-09-06T20:11:53.572Z,0.40
2022-09-06T20:14:24.834Z,0.50
2022-09-06T20:16:54.934Z,0.65
2022-09-06T20:19:24.831Z,0.70
2022-09-06T20:21:55.032Z,1.08
2022-09-06T20:24:26.734Z,1.10
2022-09-06T20:26:56.710Z,1.08
2022-09-06T20:29:26.569Z,0.52
2022-09-06T20:31:56.530Z,0.80
2022-09-06T20:34:26.401Z,0.93
2022-09-06T20:36:56.313Z,2.05
2022-09-06T20:39:27.751Z,1.35
2022-09-06T20:41:57.753Z,0.83
2022-09-06T20:44:27.743Z,0.77
2022-09-06T20:46:57.790Z,0.57
2022-09-06T20:49:27.722Z,0.88
2022-09-06T20:51:57.590Z,0.50
2022-09-06T20:54:28.997Z,0.85
2022-09-06T20:56:59.470Z,0.70
2022-09-06T20:59:29.472Z,0.98
2022-09-06T21:01:59.413Z,0.40
2022-09-06T21:04:29.697Z,0.60
2022-09-06T21:06:59.731Z,0.52
2022-09-06T21:09:31.351Z,0.40
2022-09-06T21:12:01.251Z,0.70
2022-09-06T21:14:31.089Z,0.73
2022-09-06T21:17:01.170Z,0.55
2022-09-06T21:19:30.982Z,0.90
2022-09-06T21:22:01.210Z,0.50
2022-09-06T21:24:33.470Z,0.65
2022-09-06T21:27:03.439Z,0.63
2022-09-06T21:29:33.417Z,0.50
2022-09-06T21:32:03.437Z,0.45
2022-09-06T21:34:33.483Z,0.40
2022-09-06T21:37:03.325Z,0.50
2022-09-06T21:39:34.874Z,0.50
2022-09-06T21:42:05.012Z,0.60
2022-09-06T21:44:34.982Z,0.85
2022-09-06T21:47:04.969Z,0.70
2022-09-06T21:49:34.911Z,0.50
2022-09-06T21:53:16.354Z,0.60
2022-09-06T21:55:47.615Z,0.57
2022-09-06T21:58:18.074Z,0.70
2022-09-06T22:00:54.821Z,0.68
2022-09-06T22:03:24.747Z,0.50
2022-09-06T22:05:55.455Z,0.70
2022-09-06T22:08:27.839Z,0.65
2022-09-06T22:10:57.760Z,0.73
2022-09-06T22:13:27.853Z,0.60
2022-09-06T22:15:57.705Z,0.80
2022-09-06T22:18:27.809Z,0.60
2022-09-06T22:21:02.937Z,0.93
2022-09-06T22:23:34.418Z,0.80
2022-09-06T22:26:07.396Z,0.95
2022-09-06T22:28:38.152Z,0.80
2022-09-06T22:31:09.688Z,0.82
2022-09-06T22:33:39.715Z,0.60
2022-09-06T22:36:10.795Z,0.70
2022-09-06T22:38:42.236Z,0.80
2022-09-06T22:41:12.690Z,0.93
2022-09-06T22:43:42.756Z,1.00
2022-09-06T22:46:14.423Z,2.25
2022-09-06T22:48:44.683Z,1.00
2022-09-06T22:51:15.074Z,1.00
2022-09-06T22:53:46.841Z,1.00
2022-09-06T22:56:16.803Z,0.70
2022-09-06T22:58:46.700Z,0.60
2022-09-06T23:01:18.748Z,0.60
2022-09-06T23:03:49.768Z,0.75
2022-09-06T23:06:19.795Z,0.90
2022-09-06T23:08:51.359Z,0.47
2022-09-06T23:11:22.135Z,1.00
2022-09-06T23:13:56.369Z,0.70
2022-09-06T23:16:27.305Z,0.60
2022-09-06T23:18:58.259Z,0.98
2022-09-06T23:21:28.994Z,0.45
2022-09-06T23:24:00.798Z,0.55
2022-09-06T23:26:33.171Z,0.60
2022-09-06T23:29:03.111Z,0.52
2022-09-06T23:31:34.321Z,0.60
2022-09-06T23:34:05.660Z,0.50
2022-09-06T23:36:35.803Z,0.77
2022-09-06T23:39:08.086Z,0.70
2022-09-06T23:41:38.262Z,0.77
2022-09-06T23:44:08.334Z,0.55
2022-09-06T23:46:38.309Z,0.90
2022-09-06T23:49:08.319Z,0.60
2022-09-06T23:51:38.259Z,0.90
2022-09-06T23:54:09.853Z,0.52
2022-09-06T23:56:39.857Z,0.60
2022-09-06T23:59:09.974Z,0.52
